Time;durP1;ratioP1;P1;durP2;ratioP2;P2;SDS_P1;SDS_P2;PMS_P1;PMS_P2;Temp;Humidity;BMP_temperature;BMP_pressure;BME280_temperature;BME280_humidity;BME280_pressure;Samples;Min_cycle;Max_cycle;Signal;HPM_P1;HPM_P2
2023/01/05 00:01:18;;;;;;;0.50;0.50;;;11.20;99.90;;;;;;4977391;28;20049;-82
2023/01/05 00:03:44;;;;;;;0.50;0.50;;;11.20;99.90;;;;;;4965921;28;20623;-82
2023/01/05 00:06:13;;;;;;;0.50;0.50;;;11.20;99.90;;;;;;4957802;28;20809;-81
2023/01/05 00:08:39;;;;;;;0.50;0.50;;;11.20;99.90;;;;;;4981149;28;20614;-81
2023/01/05 00:22:30;;;;;;;0.50;0.50;;;11.20;99.90;;;;;;4965859;28;20048;-82
2023/01/05 00:24:57;;;;;;;0.50;0.50;;;11.20;99.90;;;;;;4966680;28;20067;-82
2023/01/05 00:27:23;;;;;;;0.50;0.50;;;11.20;99.90;;;;;;4978574;28;20045;-81
2023/01/05 00:29:49;;;;;;;0.60;0.60;;;11.20;99.90;;;;;;4980303;28;20493;-82
2023/01/05 00:32:15;;;;;;;0.50;0.50;;;11.20;99.90;;;;;;4967257;28;20048;-81
2023/01/05 00:34:40;;;;;;;0.57;0.57;;;11.20;99.90;;;;;;4978952;28;20094;-81
2023/01/05 00:37:06;;;;;;;0.50;0.50;;;11.20;99.90;;;;;;4962331;28;20049;-81
2023/01/05 00:39:32;;;;;;;0.52;0.52;;;11.20;99.90;;;;;;4961437;28;20111;-80
2023/01/05 00:41:58;;;;;;;0.50;0.50;;;11.20;99.90;;;;;;4984132;28;20123;-81
2023/01/05 00:44:24;;;;;;;0.60;0.60;;;11.20;99.90;;;;;;4982524;28;20953;-81
2023/01/05 00:46:49;;;;;;;0.50;0.50;;;11.20;99.90;;;;;;4966408;28;20512;-81
2023/01/05 00:49:15;;;;;;;0.50;0.50;;;11.30;99.90;;;;;;4942739;28;21074;-81
2023/01/05 00:51:41;;;;;;;0.50;0.50;;;11.30;99.90;;;;;;4963424;28;20049;-82
2023/01/05 00:54:07;;;;;;;0.50;0.50;;;11.30;99.90;;;;;;4982875;28;20047;-82
2023/01/05 00:56:33;;;;;;;0.60;0.60;;;11.30;99.90;;;;;;4986811;28;20926;-81
2023/01/05 00:58:59;;;;;;;0.50;0.50;;;11.30;99.90;;;;;;4960124;28;20055;-81
2023/01/05 01:01:25;;;;;;;0.50;0.50;;;11.30;99.90;;;;;;4945292;28;20048;-81
2023/01/05 01:03:51;;;;;;;0.50;0.50;;;11.30;99.90;;;;;;4972691;28;20045;-81
2023/01/05 01:06:17;;;;;;;0.50;0.50;;;11.30;99.90;;;;;;4957749;28;20048;-81
2023/01/05 01:08:43;;;;;;;0.50;0.50;;;11.30;99.90;;;;;;4960284;28;20656;-81
2023/01/05 01:11:09;;;;;;;0.50;0.50;;;11.30;99.90;;;;;;4958940;28;20076;-81
2023/01/05 01:13:37;;;;;;;0.60;0.60;;;11.30;99.90;;;;;;4946491;28;20048;-81
2023/01/05 01:16:13;;;;;;;0.50;0.50;;;11.30;99.90;;;;;;4955039;28;20048;-81
2023/01/05 01:18:40;;;;;;;0.60;0.60;;;11.40;99.90;;;;;;4949432;28;20454;-81
2023/01/05 01:21:07;;;;;;;0.50;0.50;;;11.30;99.90;;;;;;4947559;28;20090;-81
2023/01/05 01:23:38;;;;;;;0.50;0.50;;;11.40;99.90;;;;;;4958463;28;20388;-82
2023/01/05 01:26:05;;;;;;;0.50;0.50;;;11.40;99.90;;;;;;4958639;28;20048;-82
2023/01/05 01:28:31;;;;;;;0.50;0.50;;;11.40;99.90;;;;;;4952431;28;20044;-80
2023/01/05 01:30:57;;;;;;;0.60;0.60;;;11.40;99.90;;;;;;4950548;28;20061;-81
2023/01/05 01:33:23;;;;;;;0.50;0.50;;;11.40;99.90;;;;;;4946095;28;20107;-82
2023/01/05 01:35:49;;;;;;;0.50;0.50;;;11.30;99.90;;;;;;4947332;28;20127;-81
2023/01/05 01:38:15;;;;;;;0.50;0.50;;;11.30;99.90;;;;;;4956103;28;20049;-80
2023/01/05 01:40:44;;;;;;;0.50;0.50;;;11.30;99.90;;;;;;4968720;28;20780;-80
2023/01/05 01:43:39;;;;;;;0.50;0.50;;;11.30;99.90;;;;;;4988407;28;20052;-80
2023/01/05 01:46:06;;;;;;;0.60;0.60;;;11.30;99.90;;;;;;4959859;28;20052;-82
2023/01/05 01:48:38;;;;;;;0.50;0.50;;;11.30;99.90;;;;;;4962941;28;20063;-80
2023/01/05 01:51:13;;;;;;;0.50;0.50;;;11.30;99.90;;;;;;4968325;28;20060;-80
2023/01/05 01:53:48;;;;;;;0.60;0.60;;;11.30;99.90;;;;;;4953269;28;20155;-80
2023/01/05 01:56:17;;;;;;;0.50;0.50;;;11.30;99.90;;;;;;4962039;28;20045;-80
2023/01/05 01:58:44;;;;;;;0.50;0.50;;;11.20;99.90;;;;;;4947004;28;20114;-80
2023/01/05 02:01:10;;;;;;;0.50;0.50;;;11.30;99.90;;;;;;4946854;28;21990;-80
2023/01/05 02:03:37;;;;;;;0.50;0.50;;;11.20;99.90;;;;;;4975838;28;20941;-80
2023/01/05 02:06:03;;;;;;;0.50;0.50;;;11.20;99.90;;;;;;4973586;28;20155;-81
2023/01/05 02:08:32;;;;;;;0.50;0.50;;;11.20;99.90;;;;;;4956553;28;20285;-80
2023/01/05 02:11:26;;;;;;;0.50;0.50;;;11.10;99.90;;;;;;4980002;28;20059;-81
2023/01/05 02:14:00;;;;;;;;;;;11.10;99.90;;;;;;4965873;28;20098;-81
2023/01/05 02:16:55;;;;;;;0.60;0.60;;;11.10;99.90;;;;;;4975235;28;21075;-80
2023/01/05 02:19:43;;;;;;;0.50;0.50;;;11.10;99.90;;;;;;4954797;28;20051;-81
2023/01/05 02:22:24;;;;;;;0.50;0.50;;;11.10;99.90;;;;;;4951087;28;20415;-80
2023/01/05 02:24:53;;;;;;;0.60;0.60;;;11.10;99.90;;;;;;4970315;28;20520;-80
2023/01/05 02:27:45;;;;;;;0.50;0.50;;;11.00;99.90;;;;;;4945270;28;20060;-80
2023/01/05 02:30:58;;;;;;;0.50;0.50;;;11.00;99.90;;;;;;4972166;28;20051;-80
2023/01/05 02:33:53;;;;;;;0.50;0.50;;;11.00;99.90;;;;;;4955687;28;20247;-79
2023/01/05 02:36:43;;;;;;;0.50;0.50;;;11.00;99.90;;;;;;4987590;28;20106;-80
2023/01/05 02:39:39;;;;;;;0.50;0.50;;;11.00;99.90;;;;;;4959069;28;20056;-80
2023/01/05 02:42:13;;;;;;;0.50;0.50;;;11.00;99.90;;;;;;4969345;28;20048;-80
2023/01/05 02:44:38;;;;;;;0.50;0.50;;;11.00;99.90;;;;;;4939647;28;20873;-80
2023/01/05 02:47:27;;;;;;;0.55;0.55;;;11.00;99.90;;;;;;4972549;28;20111;-80
2023/01/05 02:50:13;;;;;;;0.50;0.50;;;11.00;99.90;;;;;;4957054;28;20397;-81
2023/01/05 02:53:02;;;;;;;0.55;0.55;;;11.00;99.90;;;;;;4961261;28;20817;-81
2023/01/05 02:55:34;;;;;;;0.50;0.50;;;11.00;99.90;;;;;;4952131;28;20512;-80
2023/01/05 02:58:14;;;;;;;0.50;0.50;;;10.90;99.90;;;;;;4939779;28;20071;-81
2023/01/05 03:00:46;;;;;;;0.50;0.50;;;10.90;99.90;;;;;;4952440;28;20521;-81
2023/01/05 03:03:41;;;;;;;0.50;0.50;;;10.90;99.90;;;;;;4927678;28;20526;-80
2023/01/05 03:06:28;;;;;;;0.50;0.50;;;10.90;99.90;;;;;;4936728;28;20060;-81
2023/01/05 03:08:58;;;;;;;0.60;0.60;;;10.90;99.90;;;;;;4934818;28;20911;-79
2023/01/05 03:15:07;;;;;;;0.60;0.60;;;10.90;99.90;;;;;;4932426;28;20055;-80
2023/01/05 03:17:43;;;;;;;0.50;0.50;;;10.90;99.90;;;;;;4915797;28;20044;-80
2023/01/05 03:20:12;;;;;;;0.50;0.50;;;11.00;99.90;;;;;;4950838;28;20110;-81
2023/01/05 03:37:05;;;;;;;0.50;0.50;;;10.90;99.90;;;;;;4962851;28;20059;-80
2023/01/05 03:39:34;;;;;;;0.50;0.50;;;10.90;99.90;;;;;;4944002;28;20057;-81
2023/01/05 03:42:01;;;;;;;0.50;0.50;;;10.90;99.90;;;;;;4950679;28;20056;-81
2023/01/05 03:44:26;;;;;;;0.50;0.50;;;10.80;99.90;;;;;;4936533;28;20442;-81
2023/01/05 03:46:52;;;;;;;0.60;0.60;;;10.80;99.90;;;;;;4960265;28;20059;-80
2023/01/05 03:49:18;;;;;;;0.60;0.60;;;10.80;99.90;;;;;;4955265;28;20580;-80
2023/01/05 03:51:44;;;;;;;0.50;0.50;;;10.80;99.90;;;;;;4955090;28;20044;-80
2023/01/05 03:54:10;;;;;;;0.50;0.50;;;10.80;99.90;;;;;;4963058;28;20400;-80
2023/01/05 03:56:36;;;;;;;0.50;0.50;;;10.90;99.90;;;;;;4963204;28;20260;-79
2023/01/05 03:59:02;;;;;;;0.50;0.50;;;10.90;99.90;;;;;;4958547;28;20045;-80
2023/01/05 04:01:28;;;;;;;0.50;0.50;;;10.80;99.90;;;;;;4951372;28;20457;-80
2023/01/05 04:03:53;;;;;;;0.50;0.50;;;10.80;99.90;;;;;;4952790;28;20600;-80
2023/01/05 04:06:19;;;;;;;0.50;0.50;;;10.90;99.90;;;;;;4952794;28;20056;-80
2023/01/05 04:08:46;;;;;;;0.50;0.50;;;10.90;99.90;;;;;;4964843;28;20584;-81
2023/01/05 04:11:17;;;;;;;0.50;0.50;;;10.80;99.90;;;;;;4950704;28;20095;-81
2023/01/05 04:13:43;;;;;;;0.50;0.50;;;10.90;99.90;;;;;;4964505;28;20052;-80
2023/01/05 04:16:09;;;;;;;0.50;0.50;;;10.80;99.90;;;;;;4939546;28;20625;-81
2023/01/05 04:18:36;;;;;;;0.57;0.57;;;10.80;99.90;;;;;;4967056;28;20174;-80
2023/01/05 04:21:02;;;;;;;0.50;0.50;;;10.90;99.90;;;;;;4966478;28;20048;-80
2023/01/05 04:23:28;;;;;;;0.50;0.50;;;10.90;99.90;;;;;;4973166;28;20650;-80
2023/01/05 04:25:54;;;;;;;0.50;0.50;;;10.90;99.90;;;;;;4963179;28;20258;-81
2023/01/05 04:28:21;;;;;;;0.50;0.50;;;10.80;99.90;;;;;;4945668;28;20082;-81
2023/01/05 04:30:52;;;;;;;0.50;0.50;;;10.80;99.90;;;;;;4967145;28;20067;-80
2023/01/05 04:33:19;;;;;;;0.50;0.50;;;10.80;99.90;;;;;;4950045;28;20516;-81
2023/01/05 04:35:45;;;;;;;0.50;0.50;;;10.80;99.90;;;;;;4958029;28;20044;-81
2023/01/05 04:38:11;;;;;;;0.50;0.50;;;10.80;99.90;;;;;;4949940;28;20332;-80
2023/01/05 04:40:37;;;;;;;0.50;0.50;;;10.80;99.90;;;;;;4969837;28;20063;-81
2023/01/05 04:43:03;;;;;;;0.50;0.50;;;10.80;99.90;;;;;;4952618;28;20045;-81
2023/01/05 04:45:30;;;;;;;0.50;0.50;;;10.80;99.90;;;;;;4964186;28;20367;-81
2023/01/05 04:47:55;;;;;;;0.60;0.60;;;10.80;99.90;;;;;;4943480;28;20063;-81
2023/01/05 04:50:21;;;;;;;0.50;0.50;;;10.80;99.90;;;;;;4968199;28;20585;-80
2023/01/05 04:52:47;;;;;;;0.50;0.50;;;10.80;99.90;;;;;;4967913;28;20464;-81
2023/01/05 04:55:13;;;;;;;0.60;0.60;;;10.80;99.90;;;;;;4951426;28;20053;-82
2023/01/05 04:57:39;;;;;;;0.50;0.50;;;10.80;99.90;;;;;;4968470;28;20098;-80
2023/01/05 05:00:06;;;;;;;0.60;0.60;;;10.80;99.90;;;;;;4961109;28;20053;-81
2023/01/05 05:02:33;;;;;;;0.50;0.50;;;10.80;99.90;;;;;;4966048;28;20198;-81
2023/01/05 05:04:59;;;;;;;0.60;0.60;;;10.80;99.90;;;;;;4940145;28;20052;-81
2023/01/05 05:07:25;;;;;;;0.50;0.50;;;10.80;99.90;;;;;;4945118;28;20884;-81
2023/01/05 05:09:50;;;;;;;0.50;0.50;;;10.80;99.90;;;;;;4963345;28;20453;-81
2023/01/05 05:12:19;;;;;;;0.50;0.50;;;10.80;99.90;;;;;;4944041;28;20079;-81
2023/01/05 05:14:48;;;;;;;0.50;0.50;;;10.80;99.90;;;;;;4940303;28;20044;-81
2023/01/05 05:17:15;;;;;;;0.60;0.60;;;10.80;99.90;;;;;;4940314;28;20053;-81
2023/01/05 05:19:42;;;;;;;0.57;0.57;;;10.80;99.90;;;;;;4948574;28;20449;-81
2023/01/05 05:22:08;;;;;;;0.50;0.50;;;10.80;99.90;;;;;;4964809;28;20148;-81
2023/01/05 05:24:34;;;;;;;0.60;0.60;;;10.80;99.90;;;;;;4956778;28;20097;-82
2023/01/05 05:27:00;;;;;;;0.60;0.60;;;10.80;99.90;;;;;;4948428;28;20502;-82
2023/01/05 05:29:25;;;;;;;0.50;0.50;;;10.70;99.90;;;;;;4978216;28;20067;-82
2023/01/05 05:31:51;;;;;;;0.60;0.60;;;10.70;99.90;;;;;;4966310;28;20440;-81
2023/01/05 05:34:17;;;;;;;0.60;0.60;;;10.80;99.90;;;;;;4952358;28;20513;-81
2023/01/05 05:36:44;;;;;;;0.55;0.55;;;10.70;99.90;;;;;;4952638;28;20040;-81
2023/01/05 05:39:14;;;;;;;0.50;0.50;;;10.70;99.90;;;;;;4952765;28;20061;-81
2023/01/05 05:41:40;;;;;;;0.50;0.50;;;10.70;99.90;;;;;;4964674;28;20497;-81
2023/01/05 05:44:06;;;;;;;0.60;0.60;;;10.70;99.90;;;;;;4977866;28;20048;-81
2023/01/05 05:46:33;;;;;;;0.60;0.60;;;10.70;99.90;;;;;;4933827;28;20049;-81
2023/01/05 05:48:59;;;;;;;0.50;0.50;;;10.70;99.90;;;;;;4947018;28;20110;-81
2023/01/05 05:51:26;;;;;;;0.50;0.50;;;10.70;99.90;;;;;;4969021;28;20177;-81
2023/01/05 05:53:52;;;;;;;0.50;0.50;;;10.70;99.90;;;;;;4976521;28;20464;-81
2023/01/05 05:56:19;;;;;;;0.50;0.50;;;10.70;99.90;;;;;;4929825;28;20048;-81
2023/01/05 05:58:45;;;;;;;0.50;0.50;;;10.70;99.90;;;;;;4949724;28;20049;-81
2023/01/05 06:01:12;;;;;;;0.50;0.50;;;10.70;99.90;;;;;;4947720;28;20213;-81
2023/01/05 06:03:38;;;;;;;0.60;0.60;;;10.70;99.90;;;;;;4965518;28;20899;-81
2023/01/05 06:06:04;;;;;;;0.60;0.60;;;10.70;99.90;;;;;;4953141;28;20474;-81
2023/01/05 06:08:30;;;;;;;0.50;0.50;;;10.70;99.90;;;;;;4969253;28;20136;-81
2023/01/05 06:10:56;;;;;;;0.50;0.50;;;10.70;99.90;;;;;;4946785;28;20041;-81
2023/01/05 06:13:23;;;;;;;0.50;0.50;;;10.70;99.90;;;;;;4930759;28;20049;-81
2023/01/05 06:15:49;;;;;;;0.60;0.60;;;10.70;99.90;;;;;;4973513;28;20052;-81
2023/01/05 06:18:16;;;;;;;0.50;0.50;;;10.70;99.90;;;;;;4970296;28;20561;-81
2023/01/05 06:20:42;;;;;;;0.50;0.50;;;10.80;99.90;;;;;;4958828;28;20428;-81
2023/01/05 06:23:08;;;;;;;0.50;0.50;;;10.80;99.90;;;;;;4980334;28;20047;-81
2023/01/05 06:25:35;;;;;;;0.50;0.50;;;10.80;99.90;;;;;;4953578;28;20052;-81
2023/01/05 06:28:00;;;;;;;0.50;0.50;;;10.80;99.90;;;;;;4955259;28;20131;-82
2023/01/05 06:30:27;;;;;;;0.50;0.50;;;10.80;99.90;;;;;;4985299;28;20438;-81
2023/01/05 06:32:53;;;;;;;0.50;0.50;;;10.80;99.90;;;;;;4974321;28;20044;-81
2023/01/05 06:35:19;;;;;;;0.50;0.50;;;10.80;99.90;;;;;;4950180;28;20570;-82
2023/01/05 06:37:45;;;;;;;0.50;0.50;;;10.90;99.90;;;;;;4954336;28;20048;-81
2023/01/05 06:40:11;;;;;;;0.50;0.50;;;10.90;99.90;;;;;;4941873;28;20052;-81
2023/01/05 06:42:37;;;;;;;0.50;0.50;;;10.80;99.90;;;;;;4960859;28;20052;-82
2023/01/05 06:45:05;;;;;;;0.60;0.60;;;10.80;99.90;;;;;;4958746;28;20405;-80
2023/01/05 06:47:31;;;;;;;0.52;0.52;;;10.80;99.90;;;;;;4973666;28;20158;-81
2023/01/05 06:49:57;;;;;;;0.50;0.50;;;10.80;99.90;;;;;;4950643;28;20915;-81
2023/01/05 06:52:23;;;;;;;0.60;0.60;;;10.80;99.90;;;;;;4963319;28;20045;-81
2023/01/05 06:54:48;;;;;;;0.60;0.60;;;10.90;99.90;;;;;;4972688;28;20068;-81
2023/01/05 06:57:15;;;;;;;0.50;0.50;;;10.80;99.90;;;;;;4974886;28;20130;-82
2023/01/05 06:59:40;;;;;;;0.50;0.50;;;10.80;99.90;;;;;;4952740;28;20052;-81
2023/01/05 07:02:13;;;;;;;0.60;0.60;;;10.80;99.90;;;;;;4927319;28;20051;-81
2023/01/05 07:04:39;;;;;;;0.50;0.50;;;10.80;99.90;;;;;;4985898;28;20605;-81
2023/01/05 07:07:05;;;;;;;0.50;0.50;;;10.90;99.90;;;;;;4962072;28;20041;-81
2023/01/05 07:09:31;;;;;;;0.50;0.50;;;10.90;99.90;;;;;;4972099;28;20051;-80
2023/01/05 07:11:57;;;;;;;0.50;0.50;;;10.80;99.90;;;;;;4942122;28;20218;-81
2023/01/05 07:14:23;;;;;;;0.50;0.50;;;10.80;99.90;;;;;;4965181;28;20052;-81
2023/01/05 07:16:49;;;;;;;0.50;0.50;;;10.90;99.90;;;;;;4948626;28;20048;-81
2023/01/05 07:19:15;;;;;;;0.50;0.50;;;10.90;99.90;;;;;;4929715;28;20059;-81
2023/01/05 07:21:40;;;;;;;0.50;0.50;;;10.80;99.90;;;;;;4951439;28;20653;-81
2023/01/05 07:24:06;;;;;;;0.60;0.60;;;10.80;99.90;;;;;;4950717;28;20530;-81
2023/01/05 07:26:32;;;;;;;0.57;0.57;;;10.90;99.90;;;;;;4969681;28;20825;-81
2023/01/05 07:28:58;;;;;;;0.50;0.50;;;10.90;99.90;;;;;;4969570;28;20045;-81
2023/01/05 07:31:24;;;;;;;0.60;0.60;;;10.90;99.90;;;;;;4980690;28;20384;-81
2023/01/05 07:33:50;;;;;;;0.50;0.50;;;10.80;99.90;;;;;;4968621;28;20250;-80
2023/01/05 07:36:16;;;;;;;0.50;0.50;;;10.80;99.90;;;;;;4975749;28;20146;-81
2023/01/05 07:38:42;;;;;;;0.60;0.60;;;10.80;99.90;;;;;;4965088;28;20049;-81
2023/01/05 07:41:08;;;;;;;0.50;0.50;;;10.80;99.90;;;;;;4962475;28;20044;-82
2023/01/05 07:43:34;;;;;;;0.50;0.50;;;10.70;99.90;;;;;;4953387;28;20040;-80
2023/01/05 07:46:03;;;;;;;0.60;0.60;;;10.70;99.90;;;;;;4957597;28;20044;-81
2023/01/05 07:48:29;;;;;;;0.60;0.60;;;10.70;99.90;;;;;;4973773;28;20606;-81
2023/01/05 07:51:03;;;;;;;0.50;0.50;;;10.70;99.90;;;;;;4962198;28;20110;-81
2023/01/05 07:53:34;;;;;;;0.60;0.60;;;10.70;99.90;;;;;;4979532;28;20095;-81
2023/01/05 07:56:01;;;;;;;0.60;0.60;;;10.70;99.90;;;;;;4980188;28;20066;-81
2023/01/05 07:58:28;;;;;;;0.60;0.60;;;10.70;99.90;;;;;;4963701;28;20155;-82
2023/01/05 08:00:54;;;;;;;0.60;0.60;;;10.70;99.90;;;;;;4953944;28;20939;-81
2023/01/05 08:03:21;;;;;;;0.50;0.50;;;10.70;99.90;;;;;;4957810;28;20045;-81
2023/01/05 08:05:47;;;;;;;0.60;0.60;;;10.70;99.90;;;;;;4967710;28;20048;-82
2023/01/05 08:08:14;;;;;;;0.50;0.50;;;10.80;99.90;;;;;;4964806;28;20071;-82
2023/01/05 08:10:41;;;;;;;0.60;0.60;;;10.80;99.90;;;;;;4953664;28;20879;-81
2023/01/05 08:15:55;;;;;;;0.50;0.50;;;10.80;99.90;;;;;;4957263;28;20087;-81
2023/01/05 08:18:22;;;;;;;0.50;0.50;;;10.80;99.90;;;;;;4985403;28;20492;-81
2023/01/05 08:20:56;;;;;;;0.50;0.50;;;10.80;99.90;;;;;;4974463;28;20045;-81
2023/01/05 08:23:24;;;;;;;0.50;0.50;;;10.80;99.90;;;;;;4978742;28;20045;-82
2023/01/05 08:25:50;;;;;;;0.60;0.60;;;10.70;99.90;;;;;;4952973;28;20110;-82
2023/01/05 08:28:16;;;;;;;0.50;0.50;;;10.80;99.90;;;;;;4947317;28;20087;-82
2023/01/05 08:30:42;;;;;;;0.50;0.50;;;10.80;99.90;;;;;;4942117;28;20285;-81
2023/01/05 08:33:08;;;;;;;0.50;0.50;;;10.80;99.90;;;;;;4970002;28;20147;-82
2023/01/05 08:35:38;;;;;;;0.50;0.50;;;10.80;99.90;;;;;;4951766;28;20044;-80
2023/01/05 08:38:04;;;;;;;0.60;0.60;;;10.80;99.90;;;;;;4941383;28;20053;-82
2023/01/05 08:40:30;;;;;;;0.55;0.55;;;10.80;99.90;;;;;;4952778;28;20604;-82
2023/01/05 08:42:56;;;;;;;0.50;0.50;;;10.90;99.90;;;;;;4972330;28;20773;-81
2023/01/05 08:45:22;;;;;;;0.50;0.50;;;10.80;99.90;;;;;;4963574;28;20083;-81
2023/01/05 08:47:48;;;;;;;0.55;0.55;;;10.90;99.90;;;;;;4946003;28;20803;-81
2023/01/05 08:50:14;;;;;;;0.50;0.50;;;10.90;99.90;;;;;;4965202;28;20941;-81
2023/01/05 08:52:40;;;;;;;0.50;0.50;;;10.90;99.90;;;;;;4975347;28;20471;-81
2023/01/05 08:55:06;;;;;;;0.60;0.60;;;10.90;99.90;;;;;;4949167;28;20683;-81
2023/01/05 08:57:33;;;;;;;0.50;0.50;;;10.90;99.90;;;;;;4945733;28;20407;-82
2023/01/05 08:59:59;;;;;;;0.50;0.50;;;10.90;99.90;;;;;;4943273;28;20407;-82
2023/01/05 09:02:25;;;;;;;0.50;0.50;;;10.90;99.90;;;;;;4968626;28;20532;-81
2023/01/05 09:04:52;;;;;;;0.50;0.50;;;10.90;99.90;;;;;;4948635;28;20487;-82
2023/01/05 09:07:19;;;;;;;0.50;0.50;;;10.90;99.90;;;;;;4943582;28;20685;-82
2023/01/05 09:09:45;;;;;;;0.50;0.50;;;10.90;99.90;;;;;;4954701;28;20044;-81
2023/01/05 09:12:10;;;;;;;0.50;0.50;;;10.90;99.90;;;;;;4970442;28;20687;-81
2023/01/05 09:14:38;;;;;;;0.50;0.50;;;11.00;99.90;;;;;;4964174;28;20572;-81
2023/01/05 09:17:04;;;;;;;0.50;0.50;;;11.00;99.90;;;;;;4950272;28;20064;-81
2023/01/05 09:19:29;;;;;;;0.50;0.50;;;11.00;99.90;;;;;;4969715;28;20041;-83
2023/01/05 09:21:55;;;;;;;0.50;0.50;;;11.00;99.90;;;;;;4933903;28;20580;-81
2023/01/05 09:24:22;;;;;;;0.60;0.60;;;11.00;99.90;;;;;;4941207;28;20629;-80
2023/01/05 09:26:49;;;;;;;0.50;0.50;;;11.00;99.90;;;;;;4962999;28;20045;-82
2023/01/05 09:29:15;;;;;;;0.50;0.50;;;11.00;99.90;;;;;;4968926;28;20075;-80
2023/01/05 09:31:41;;;;;;;0.60;0.60;;;11.10;99.90;;;;;;4955078;28;20056;-80
2023/01/05 09:34:08;;;;;;;0.50;0.50;;;11.00;99.90;;;;;;4972301;28;20789;-81
2023/01/05 09:36:35;;;;;;;0.50;0.50;;;11.10;99.90;;;;;;4964869;28;20411;-80
2023/01/05 09:39:01;;;;;;;0.50;0.50;;;11.10;99.90;;;;;;4946173;28;20053;-81
2023/01/05 09:41:46;;;;;;;0.50;0.50;;;11.10;99.90;;;;;;4939869;28;20392;-82
2023/01/05 09:44:21;;;;;;;0.55;0.55;;;11.10;99.90;;;;;;4969734;28;20091;-81
2023/01/05 09:46:49;;;;;;;0.50;0.50;;;11.10;99.90;;;;;;4951896;28;20127;-82
2023/01/05 09:49:20;;;;;;;0.60;0.60;;;11.10;99.90;;;;;;4952920;28;20761;-80
2023/01/05 09:51:48;;;;;;;0.50;0.50;;;11.10;99.90;;;;;;4972859;28;20136;-81
2023/01/05 09:54:17;;;;;;;0.50;0.50;;;11.10;99.90;;;;;;4932632;28;20065;-81
2023/01/05 09:56:48;;;;;;;0.50;0.50;;;11.10;99.90;;;;;;4948361;28;20076;-82
2023/01/05 09:59:28;;;;;;;0.50;0.50;;;11.10;99.90;;;;;;4947455;28;20060;-81
2023/01/05 10:01:57;;;;;;;0.60;0.60;;;11.20;99.90;;;;;;4936207;28;20049;-81
2023/01/05 10:04:26;;;;;;;0.50;0.50;;;11.20;99.90;;;;;;4956895;28;20048;-81
2023/01/05 10:07:02;;;;;;;0.50;0.50;;;11.10;99.90;;;;;;4945460;28;20167;-81
2023/01/05 10:09:32;;;;;;;0.50;0.50;;;11.20;99.90;;;;;;4936892;28;20056;-81
2023/01/05 10:15:09;;;;;;;0.50;0.50;;;11.20;99.90;;;;;;4941307;28;20132;-81
2023/01/05 10:17:40;;;;;;;0.50;0.50;;;11.30;99.90;;;;;;4946489;28;20048;-82
2023/01/05 10:20:20;;;;;;;0.60;0.60;;;11.30;99.90;;;;;;4965781;28;20189;-82
2023/01/05 10:22:58;;;;;;;0.50;0.50;;;11.30;99.90;;;;;;4954181;28;20438;-82
2023/01/05 10:25:43;;;;;;;0.60;0.60;;;11.30;99.90;;;;;;4964079;28;20413;-81
2023/01/05 10:28:50;;;;;;;0.50;0.50;;;11.30;99.90;;;;;;4922522;28;20646;-81
2023/01/05 10:31:42;;;;;;;0.50;0.50;;;11.30;99.90;;;;;;4885621;28;20429;-81
2023/01/05 10:34:55;;;;;;;0.50;0.50;;;11.30;99.90;;;;;;4960014;28;20052;-81
2023/01/05 10:37:34;;;;;;;0.50;0.50;;;11.30;99.90;;;;;;4921184;28;20764;-82
2023/01/05 10:40:16;;;;;;;0.57;0.57;;;11.40;99.90;;;;;;4942421;28;20129;-81
2023/01/05 10:42:58;;;;;;;0.50;0.50;;;11.40;99.90;;;;;;4941347;28;20059;-81
2023/01/05 10:45:27;;;;;;;0.50;0.50;;;11.30;99.90;;;;;;4955628;28;20055;-81
2023/01/05 10:47:53;;;;;;;0.60;0.60;;;11.30;99.90;;;;;;4946178;28;20485;-81
2023/01/05 10:50:34;;;;;;;0.50;0.50;;;11.20;99.90;;;;;;4955316;28;20053;-81
2023/01/05 10:53:14;;;;;;;0.60;0.60;;;11.20;99.90;;;;;;4955729;28;20382;-82
2023/01/05 10:56:12;;;;;;;0.60;0.60;;;11.20;99.90;;;;;;4922717;28;20967;-81
2023/01/05 10:58:45;;;;;;;0.50;0.50;;;11.20;99.90;;;;;;4964514;28;20057;-81
2023/01/05 11:01:29;;;;;;;0.70;0.70;;;11.10;99.90;;;;;;4959824;28;20430;-81
2023/01/05 11:04:04;;;;;;;0.60;0.60;;;11.20;99.90;;;;;;4935718;28;20303;-81
2023/01/05 11:06:33;;;;;;;0.60;0.60;;;11.30;99.90;;;;;;4954469;28;20776;-81
2023/01/05 11:09:14;;;;;;;0.60;0.60;;;11.30;99.90;;;;;;4956320;28;20795;-80
2023/01/05 11:11:41;;;;;;;0.60;0.60;;;11.40;99.90;;;;;;4952498;28;20055;-80
2023/01/05 11:14:15;;;;;;;0.50;0.50;;;11.40;99.90;;;;;;4959619;28;20186;-81
2023/01/05 11:16:46;;;;;;;;;;;11.50;99.90;;;;;;4948531;28;21155;-80
2023/01/05 11:19:15;;;;;;;0.60;0.60;;;11.50;99.90;;;;;;4942000;28;20409;-81
2023/01/05 11:21:44;;;;;;;0.60;0.60;;;11.50;99.90;;;;;;4956226;28;20069;-81
2023/01/05 11:24:34;;;;;;;0.60;0.60;;;11.50;99.90;;;;;;4958888;28;20044;-80
2023/01/05 11:27:22;;;;;;;0.60;0.60;;;11.50;99.90;;;;;;4954603;28;20148;-80
2023/01/05 11:30:25;;;;;;;0.50;0.50;;;11.60;99.90;;;;;;4954679;28;20648;-81
2023/01/05 11:32:51;;;;;;;0.60;0.60;;;11.50;99.90;;;;;;4954340;28;20056;-81
2023/01/05 11:35:21;;;;;;;0.50;0.50;;;11.40;99.90;;;;;;4944601;28;20047;-81
2023/01/05 11:37:47;;;;;;;0.60;0.60;;;11.50;99.90;;;;;;4937731;28;20064;-80
2023/01/05 11:40:16;;;;;;;0.50;0.50;;;11.50;99.90;;;;;;4960668;28;20416;-80
2023/01/05 11:42:44;;;;;;;0.50;0.50;;;11.50;99.90;;;;;;4941359;28;20674;-81
2023/01/05 11:45:19;;;;;;;0.50;0.50;;;11.50;99.90;;;;;;4955983;28;20697;-81
2023/01/05 11:47:53;;;;;;;0.50;0.50;;;11.50;99.90;;;;;;4946131;28;20051;-80
2023/01/05 11:50:26;;;;;;;0.50;0.50;;;11.50;99.90;;;;;;4972062;28;20569;-80
2023/01/05 11:53:00;;;;;;;0.50;0.50;;;11.60;99.90;;;;;;4972186;28;20572;-81
2023/01/05 11:55:37;;;;;;;0.50;0.50;;;11.60;99.90;;;;;;4939767;28;20106;-81
2023/01/05 11:58:30;;;;;;;0.50;0.50;;;11.50;99.90;;;;;;4950299;28;20056;-80
2023/01/05 12:01:04;;;;;;;0.50;0.50;;;11.50;99.90;;;;;;4944484;28;20537;-81
2023/01/05 12:04:02;;;;;;;0.60;0.60;;;11.50;99.90;;;;;;4960152;28;20052;-80
2023/01/05 12:06:46;;;;;;;0.50;0.50;;;11.40;99.90;;;;;;4943690;28;20052;-81
2023/01/05 12:09:12;;;;;;;;;;;11.40;99.90;;;;;;4961716;28;20127;-80
2023/01/05 12:11:51;;;;;;;0.60;0.60;;;11.40;99.90;;;;;;4971142;28;19924;-80
2023/01/05 12:14:26;;;;;;;0.50;0.50;;;11.30;99.90;;;;;;4968293;28;20068;-80
2023/01/05 12:16:55;;;;;;;0.50;0.50;;;11.30;99.90;;;;;;4958054;28;20908;-80
2023/01/05 12:19:49;;;;;;;0.50;0.50;;;11.30;99.90;;;;;;4941604;28;20081;-81
2023/01/05 12:22:27;;;;;;;0.50;0.50;;;11.30;99.90;;;;;;4965462;28;20041;-81
2023/01/05 12:25:10;;;;;;;0.60;0.60;;;11.30;99.90;;;;;;4961386;28;20052;-81
2023/01/05 12:27:58;;;;;;;0.60;0.60;;;11.30;99.90;;;;;;4965367;28;20208;-81
2023/01/05 12:30:45;;;;;;;0.50;0.50;;;11.20;99.90;;;;;;4956509;28;20056;-81
2023/01/05 12:33:19;;;;;;;0.50;0.50;;;11.10;99.90;;;;;;4947647;28;20171;-81
2023/01/05 12:36:06;;;;;;;0.50;0.50;;;11.20;99.90;;;;;;4965981;28;20442;-80
2023/01/05 12:38:47;;;;;;;0.50;0.50;;;11.10;99.90;;;;;;4966976;28;20130;-80
2023/01/05 12:41:42;;;;;;;0.50;0.50;;;11.00;99.90;;;;;;4965486;28;20098;-81
2023/01/05 12:44:24;;;;;;;0.60;0.60;;;11.00;99.90;;;;;;4953703;28;20551;-80
2023/01/05 12:47:27;;;;;;;0.50;0.50;;;11.00;99.90;;;;;;4966247;28;20052;-81
2023/01/05 12:50:34;;;;;;;0.50;0.50;;;11.00;99.90;;;;;;4946033;28;20438;-82
2023/01/05 12:53:12;;;;;;;0.50;0.50;;;10.90;99.90;;;;;;4968718;28;20435;-81
2023/01/05 12:55:44;;;;;;;0.50;0.50;;;11.00;99.90;;;;;;4950377;28;20529;-81
2023/01/05 12:58:13;;;;;;;0.50;0.50;;;11.00;99.90;;;;;;4965644;28;20482;-81
2023/01/05 13:00:45;;;;;;;0.50;0.50;;;10.90;99.90;;;;;;4970268;28;20579;-81
2023/01/05 13:03:21;;;;;;;0.50;0.50;;;11.00;99.90;;;;;;4972304;28;20041;-81
2023/01/05 13:05:59;;;;;;;0.50;0.50;;;11.00;99.90;;;;;;4956150;28;20365;-81
2023/01/05 13:08:35;;;;;;;0.50;0.50;;;11.00;99.90;;;;;;4957518;28;20383;-81
2023/01/05 13:11:01;;;;;;;0.50;0.50;;;11.00;99.90;;;;;;4961895;28;20053;-81
2023/01/05 13:13:34;;;;;;;0.50;0.50;;;11.00;99.90;;;;;;4961912;28;21316;-81
2023/01/05 13:16:16;;;;;;;0.60;0.60;;;11.00;99.90;;;;;;4957951;28;20185;-80
2023/01/05 13:18:53;;;;;;;0.50;0.50;;;11.00;99.90;;;;;;4968231;28;20041;-81
2023/01/05 13:21:21;;;;;;;0.50;0.50;;;11.00;99.90;;;;;;4966212;28;20510;-81
2023/01/05 13:23:54;;;;;;;0.55;0.55;;;11.10;99.90;;;;;;4969465;28;21019;-82
2023/01/05 13:26:21;;;;;;;0.50;0.50;;;11.00;99.90;;;;;;4943475;28;20069;-80
2023/01/05 13:28:50;;;;;;;0.50;0.50;;;11.10;99.90;;;;;;4966778;28;20068;-80
2023/01/05 13:31:31;;;;;;;0.50;0.50;;;11.10;99.90;;;;;;4967767;28;20785;-81
2023/01/05 13:34:23;;;;;;;0.50;0.50;;;11.10;99.90;;;;;;4960096;28;20040;-81
2023/01/05 13:36:55;;;;;;;0.50;0.50;;;11.10;99.90;;;;;;4945171;28;20052;-81
2023/01/05 13:39:53;;;;;;;0.50;0.50;;;11.10;99.90;;;;;;4964914;28;20473;-81
2023/01/05 13:42:51;;;;;;;0.50;0.50;;;11.10;99.90;;;;;;4939461;28;20061;-80
2023/01/05 13:45:45;;;;;;;0.60;0.60;;;11.10;99.90;;;;;;4917904;28;20179;-81